Thunder radar more information blitzortung!


Radar de pluja more information rain snow radar


Visita la nostra xarxa de llocs de meteo:

Template documentation
and downloads

And another site



No particular awareness of the weather is required.    There are no Weather-warnings

Pagina Historial Weather Underground text

Diari Resum Juliol 31, 2017 Unitats:  Mètric    Imperial   Tant
« Previous Dia
SegĂźent Dia »
Diari Setmana Mensual Anual Personalitzada
  Maxima: Minima: Media:
Temperatura: -17.8 °C -5.7 °C -2.2 °C
Punt de rosada: -17.8 °C -8.8 °C -7.6 °C
Humitat: Humidity % 43 % 57 %
Wind Speed: 0 km/h 0 km/h 18 km/h
RĂ fegues de vent: 0 km/h - -
Vent:- - East
Pression baro: 0 hPa 34097 hPa -
Precipitacions: 0 mm    
Historical Graphs
 
 
Dades de taula per Juliol 31, 2017
Temps Temperatura Punt de rosada Pression baro Vent Wind Speed RĂ fegues de vent Humitat Rainfall Rate (Hourly)
-17.8 °C -17.8 °C 0 hPa Calm     Humidity % 0 mm
00:00 -5.3 °C -8.3 °C 34198.6 hPa NE 7.7 km/h 10.3 km/h 71 % 0 mm
00:01 -4.3 °C -7.3 °C 34198.6 hPa SW 3.1 km/h 3.1 km/h 72 % 0 mm
00:06 -4.3 °C -7.2 °C 34198.6 hPa Calm     73 % 0 mm
00:10 -5.3 °C -8.4 °C 34198.6 hPa NE 5.1 km/h 7.7 km/h 71 % 0 mm
00:11 -4.3 °C -7.2 °C 34198.6 hPa ENE 5.1 km/h 5.1 km/h 73 % 0 mm
00:20 -5.3 °C -8.4 °C 34198.6 hPa NNE 5.1 km/h 10.3 km/h 71 % 0 mm
00:30 -5.3 °C -8.4 °C 34198.6 hPa NNE 7.7 km/h 10.3 km/h 71 % 0 mm
00:40 -5.3 °C -8.4 °C 34198.6 hPa NNE 7.7 km/h 10.3 km/h 71 % 0 mm
00:50 -5.3 °C -8.4 °C 34198.6 hPa NNE 7.7 km/h 10.3 km/h 71 % 0 mm
01:00 -5.4 °C -8.3 °C 34198.6 hPa NE 7.7 km/h 7.7 km/h 72 % 0 mm
01:10 -5.4 °C -8.3 °C 34198.6 hPa NE 7.7 km/h 10.3 km/h 72 % 0 mm
01:20 -5.4 °C -8.5 °C 34198.6 hPa NE 7.7 km/h 7.7 km/h 71 % 0 mm
01:30 -5.4 °C -8.4 °C 34198.6 hPa NE 7.7 km/h 10.3 km/h 72 % 0 mm
01:40 -5.5 °C -8.4 °C 34198.6 hPa NE 7.7 km/h 10.3 km/h 72 % 0 mm
01:50 -5.6 °C -8.5 °C 34198.6 hPa NNE 7.7 km/h 10.3 km/h 72 % 0 mm
02:00 -5.7 °C -8.5 °C 34198.6 hPa NNE 5.1 km/h 7.7 km/h 73 % 0 mm
02:10 -5.7 °C -8.7 °C 34198.6 hPa NNE 5.1 km/h 7.7 km/h 72 % 0 mm
02:20 -5.7 °C -8.8 °C 34198.6 hPa NNE 2.6 km/h 7.7 km/h 71 % 0 mm
02:30 -5.6 °C -8.7 °C 34198.6 hPa NNE 2.6 km/h 7.7 km/h 71 % 0 mm
02:40 -5.4 °C -8.7 °C 34198.6 hPa NNE 5.1 km/h 7.7 km/h 69 % 0 mm
02:50 -5.2 °C -8.6 °C 34164.7 hPa NNE 5.1 km/h 7.7 km/h 69 % 0 mm
03:00 -5.1 °C -8.5 °C 34164.7 hPa NE 5.1 km/h 7.7 km/h 68 % 0 mm
03:10 -4.9 °C -8.2 °C 34164.7 hPa ENE 7.7 km/h 7.7 km/h 69 % 0 mm
03:20 -4.7 °C -8.1 °C 34198.6 hPa ENE 7.7 km/h 7.7 km/h 69 % 0 mm
03:30 -4.6 °C -7.9 °C 34198.6 hPa ENE 7.7 km/h 10.3 km/h 69 % 0 mm
03:40 -4.5 °C -7.8 °C 34164.7 hPa East 5.1 km/h 7.7 km/h 69 % 0 mm
03:50 -4.2 °C -7.7 °C 34198.6 hPa ENE 7.7 km/h 10.3 km/h 68 % 0 mm
04:00 -4.2 °C -7.7 °C 34198.6 hPa ENE 7.7 km/h 10.3 km/h 68 % 0 mm
04:10 -4.1 °C -7.7 °C 34164.7 hPa ENE 7.7 km/h 12.9 km/h 67 % 0 mm
04:20 -3.8 °C -7.6 °C 34198.6 hPa ENE 7.7 km/h 12.9 km/h 66 % 0 mm
04:30 -3.7 °C -7.5 °C 34198.6 hPa East 7.7 km/h 12.9 km/h 66 % 0 mm
04:40 -3.7 °C -7.6 °C 34198.6 hPa ESE 12.9 km/h 12.9 km/h 65 % 0 mm
04:50 -3.2 °C -7.3 °C 34198.6 hPa ESE 5.1 km/h 12.9 km/h 64 % 0 mm
05:00 -3.1 °C -7.4 °C 34198.6 hPa East 15.6 km/h 15.6 km/h 62 % 0 mm
05:10 -2.9 °C -7.6 °C 34198.6 hPa ENE 12.9 km/h 15.6 km/h 60 % 0 mm
05:20 -2.8 °C -7.6 °C 34198.6 hPa East 7.7 km/h 10.3 km/h 59 % 0 mm
05:30 -2.8 °C -7.7 °C 34198.6 hPa East 12.9 km/h 15.6 km/h 58 % 0 mm
05:40 -2.4 °C -7.6 °C 34198.6 hPa East 18.2 km/h 31.1 km/h 57 % 0 mm
05:50 -2.4 °C -7.9 °C 34198.6 hPa East 7.7 km/h 20.8 km/h 55 % 0 mm
06:00 -2.3 °C -8.2 °C 34198.6 hPa East 12.9 km/h 25.9 km/h 53 % 0 mm
11:03 -2.1 °C -8.1 °C 34198.6 hPa ENE 25.9 km/h 25.9 km/h 52 % 0 mm
11:08 -2.1 °C -8.1 °C 34198.6 hPa ENE 20.9 km/h 20.9 km/h 52 % 0 mm
11:13 -1.9 °C -8.1 °C 34198.6 hPa ESE 15.6 km/h 15.6 km/h 51 % 0 mm
11:18 -1.8 °C -7.9 °C 34164.7 hPa NNW 24.3 km/h 24.3 km/h 51 % 0 mm
11:23 -1.7 °C -8.1 °C 34164.7 hPa ESE 23.8 km/h 23.8 km/h 50 % 0 mm
11:28 -1.6 °C -8 °C 34164.7 hPa North 23.8 km/h 23.8 km/h 50 % 0 mm
11:33 -1.4 °C -7.8 °C 34198.6 hPa ENE 20.9 km/h 20.9 km/h 50 % 0 mm
11:38 -1.2 °C -7.6 °C 34198.6 hPa NNE 14 km/h 14 km/h 50 % 0 mm
11:43 -1.2 °C -7.7 °C 34198.6 hPa East 18.3 km/h 18.3 km/h 49 % 0 mm
11:48 -1.2 °C -7.6 °C 34198.6 hPa ENE 24.3 km/h 24.3 km/h 50 % 0 mm
11:53 -1.3 °C -7.7 °C 34198.6 hPa ESE 20.9 km/h 20.9 km/h 50 % 0 mm
11:58 -1.3 °C -7.9 °C 34198.6 hPa ESE 20.9 km/h 20.9 km/h 49 % 0 mm
12:03 -0.9 °C -7.6 °C 34198.6 hPa SE 15 km/h 15 km/h 49 % 0 mm
12:08 -0.9 °C -7.9 °C 34198.6 hPa ENE 22.5 km/h 22.5 km/h 47 % 0 mm
12:13 -1.1 °C -8.2 °C 34198.6 hPa ENE 17.9 km/h 17.9 km/h 46 % 0 mm
12:18 -1 °C -8.2 °C 34164.7 hPa ESE 17.9 km/h 17.9 km/h 46 % 0 mm
12:23 -0.9 °C -8.1 °C 34164.7 hPa East 20.9 km/h 20.9 km/h 46 % 0 mm
12:28 -0.7 °C -8.1 °C 34164.7 hPa ENE 35.7 km/h 35.7 km/h 45 % 0 mm
12:33 -0.8 °C -7.9 °C 34164.7 hPa ENE 20.9 km/h 20.9 km/h 46 % 0 mm
12:38 -0.7 °C -7.9 °C 34164.7 hPa ESE 20.9 km/h 20.9 km/h 46 % 0 mm
12:43 -0.7 °C -7.9 °C 34164.7 hPa SE 20.9 km/h 20.9 km/h 46 % 0 mm
12:48 -0.7 °C -7.9 °C 34164.7 hPa SW 20.9 km/h 20.9 km/h 46 % 0 mm
12:53 -0.7 °C -8.1 °C 34164.7 hPa ESE 35.7 km/h 35.7 km/h 45 % 0 mm
12:58 -0.5 °C -7.9 °C 34164.7 hPa NE 15 km/h 15 km/h 45 % 0 mm
13:03 -0.6 °C -7.9 °C 34130.9 hPa NNE 15 km/h 15.6 km/h 45 % 0 mm
13:08 -0.8 °C -8.2 °C 34130.9 hPa East 29.8 km/h 29.8 km/h 45 % 0 mm
13:13 -0.4 °C -7.8 °C 34130.9 hPa ESE 15.6 km/h 15.6 km/h 45 % 0 mm
13:18 -0.3 °C -7.7 °C 34164.7 hPa ESE 32.8 km/h 32.8 km/h 45 % 0 mm
13:23 -0.5 °C -8.1 °C 34164.7 hPa ESE 20.9 km/h 20.9 km/h 44 % 0 mm
13:28 -0.4 °C -8.1 °C 34164.7 hPa ENE 27.2 km/h 27.2 km/h 44 % 0 mm
13:33 -0.2 °C -7.9 °C 34130.9 hPa SE 20.9 km/h 20.9 km/h 44 % 0 mm
13:38 -0.1 °C -7.7 °C 34130.9 hPa SE 26.9 km/h 26.9 km/h 44 % 0 mm
13:43 -0.2 °C -7.8 °C 34130.9 hPa East 12.7 km/h 12.7 km/h 44 % 0 mm
13:48 -0.1 °C -7.7 °C 34130.9 hPa East 20.9 km/h 20.9 km/h 44 % 0 mm
13:53 -0.2 °C -7.9 °C 34130.9 hPa East 23.8 km/h 23.8 km/h 44 % 0 mm
13:58 -0.3 °C -7.9 °C 34130.9 hPa ESE 15 km/h 16.1 km/h 44 % 0 mm
14:03 -0.1 °C -7.7 °C 34164.7 hPa ESE 23.8 km/h 23.8 km/h 44 % 0 mm
14:08 -0.1 °C -7.7 °C 34164.7 hPa ESE 23.8 km/h 23.8 km/h 44 % 0 mm
14:13 -0.1 °C -7.7 °C 34164.7 hPa SE 20.9 km/h 20.9 km/h 44 % 0 mm
14:18 -0.1 °C -7.9 °C 34164.7 hPa East 23.8 km/h 23.8 km/h 43 % 0 mm
14:23 0.1 °C -7.8 °C 34164.7 hPa East 23.8 km/h 23.8 km/h 43 % 0 mm
14:28 -0.2 °C -7.6 °C 34164.7 hPa ESE 26.9 km/h 26.9 km/h 45 % 0 mm
14:33 -0.1 °C -7.6 °C 34198.6 hPa ESE 26.9 km/h 26.9 km/h 45 % 0 mm
14:38 -0.2 °C -7.6 °C 34198.6 hPa ENE 23.8 km/h 23.8 km/h 45 % 0 mm
14:43 -0.2 °C -7.6 °C 34198.6 hPa ENE 32.8 km/h 32.8 km/h 45 % 0 mm
14:48 -0.2 °C -7.6 °C 34164.7 hPa ESE 31.4 km/h 31.4 km/h 45 % 0 mm
14:53 -0.3 °C -7.6 °C 34164.7 hPa ESE 35.7 km/h 35.7 km/h 46 % 0 mm
14:58 -0.4 °C -7.6 °C 34164.7 hPa ESE 26.9 km/h 26.9 km/h 46 % 0 mm
15:03 -0.3 °C -7.4 °C 34164.7 hPa ESE 35.7 km/h 35.7 km/h 47 % 0 mm
15:08 -0.4 °C -7.4 °C 34164.7 hPa ESE 29.8 km/h 29.8 km/h 47 % 0 mm
15:13 -0.6 °C -7.6 °C 34164.7 hPa ESE 38.8 km/h 38.8 km/h 47 % 0 mm
15:18 -0.4 °C -7.4 °C 34164.7 hPa SE 22.5 km/h 22.5 km/h 47 % 0 mm
15:23 -0.4 °C -7.4 °C 34164.7 hPa SE 26.9 km/h 26.9 km/h 47 % 0 mm
15:28 -0.5 °C -7.3 °C 34164.7 hPa ESE 26.4 km/h 26.4 km/h 48 % 0 mm
15:33 -0.4 °C -7.3 °C 34164.7 hPa ESE 26.9 km/h 26.9 km/h 48 % 0 mm
15:38 -0.3 °C -7 °C 34164.7 hPa ESE 11.9 km/h 12.2 km/h 49 % 0 mm
15:43 -0.3 °C -7.2 °C 34164.7 hPa ESE 26.9 km/h 26.9 km/h 48 % 0 mm
15:48 -0.4 °C -7.2 °C 34130.9 hPa ESE 20.9 km/h 20.9 km/h 48 % 0 mm
15:53 -0.3 °C -7.1 °C 34130.9 hPa ENE 29.8 km/h 29.8 km/h 48 % 0 mm
15:58 -0.2 °C -7.1 °C 34130.9 hPa NE 20.9 km/h 20.9 km/h 48 % 0 mm
16:03 -0.2 °C -7.1 °C 34130.9 hPa ESE 23.8 km/h 23.8 km/h 48 % 0 mm
16:08 -0.3 °C -7.4 °C 34130.9 hPa SE 20.9 km/h 20.9 km/h 47 % 0 mm
16:13 -0.3 °C -7.1 °C 34130.9 hPa ESE 20.9 km/h 20.9 km/h 48 % 0 mm
16:18 -0.3 °C -7.2 °C 34130.9 hPa ESE 17.9 km/h 17.9 km/h 48 % 0 mm
16:23 -0.1 °C -7.2 °C 34130.9 hPa ESE 17.9 km/h 17.9 km/h 47 % 0 mm
16:24 -0.1 °C -7.2 °C 34130.9 hPa ESE 17.9 km/h 17.9 km/h 47 % 0 mm
16:29 -0.2 °C -7.3 °C 34130.9 hPa ENE 26.9 km/h 26.9 km/h 47 % 0 mm
16:34 -0.1 °C -7.3 °C 34130.9 hPa ESE 26.9 km/h 26.9 km/h 46 % 0 mm
16:39 -0.1 °C -7.3 °C 34130.9 hPa ESE 22 km/h 22 km/h 46 % 0 mm
16:44 0.1 °C -7.2 °C 34130.9 hPa ENE 20.9 km/h 20.9 km/h 46 % 0 mm
16:49 -0.1 °C -7.1 °C 34130.9 hPa SE 25.1 km/h 25.1 km/h 47 % 0 mm
16:54 -0.2 °C -7.3 °C 34130.9 hPa ENE 20.9 km/h 20.9 km/h 47 % 0 mm
16:59 -0.3 °C -7.4 °C 34130.9 hPa ESE 20.9 km/h 20.9 km/h 47 % 0 mm
17:04 -0.3 °C -7.4 °C 34130.9 hPa ESE 20.9 km/h 20.9 km/h 47 % 0 mm
17:05 -0.3 °C -7.4 °C 34130.9 hPa SSE 29.8 km/h 29.8 km/h 47 % 0 mm
17:10 -0.3 °C -7.3 °C 34130.9 hPa ESE 23.8 km/h 23.8 km/h 47 % 0 mm
17:15 -0.3 °C -7.4 °C 34130.9 hPa SE 33.2 km/h 33.2 km/h 47 % 0 mm
17:20 -0.6 °C -7.6 °C 34130.9 hPa East 20.9 km/h 20.9 km/h 47 % 0 mm
17:25 -0.5 °C -7.6 °C 34130.9 hPa ESE 26.9 km/h 26.9 km/h 47 % 0 mm
17:30 -0.4 °C -7.3 °C 34130.9 hPa ESE 15 km/h 15 km/h 48 % 0 mm
17:35 -0.6 °C -7.6 °C 34130.9 hPa East 17.9 km/h 17.9 km/h 47 % 0 mm
17:40 -0.7 °C -7.5 °C 34130.9 hPa ESE 26.9 km/h 26.9 km/h 48 % 0 mm
17:45 -0.9 °C -7.6 °C 34130.9 hPa East 23.3 km/h 33.6 km/h 49 % 0 mm
17:50 -0.9 °C -7.4 °C 34130.9 hPa ESE 7.7 km/h 25.9 km/h 50 % 0 mm
17:55 -1 °C -7.6 °C 34130.9 hPa ESE 18.2 km/h 28.5 km/h 49 % 0 mm
18:00 -1.2 °C -7.4 °C 34130.9 hPa ESE 20.9 km/h 20.9 km/h 51 % 0 mm
18:05 -1.3 °C -7.5 °C 34130.9 hPa ESE 26.4 km/h 26.4 km/h 51 % 0 mm
18:10 -1.3 °C -7.2 °C 34130.9 hPa ESE 15 km/h 15 km/h 53 % 0 mm
18:15 -1.3 °C -7.2 °C 34130.9 hPa ENE 26.9 km/h 26.9 km/h 53 % 0 mm
18:20 -1.5 °C -7.2 °C 34130.9 hPa East 29.8 km/h 29.8 km/h 54 % 0 mm
18:25 -1.6 °C -7.3 °C 34130.9 hPa East 15.6 km/h 25.9 km/h 54 % 0 mm
18:30 -1.7 °C -7.1 °C 34130.9 hPa NNE 20.9 km/h 20.9 km/h 56 % 0 mm
18:35 -1.6 °C -7 °C 34130.9 hPa NE 17.9 km/h 17.9 km/h 56 % 0 mm
18:40 -1.9 °C -6.9 °C 34130.9 hPa East 26.9 km/h 26.9 km/h 58 % 0 mm
18:45 -1.9 °C -6.8 °C 34130.9 hPa East 20.9 km/h 20.9 km/h 59 % 0 mm
18:50 -2 °C -7.1 °C 34130.9 hPa NE 20.9 km/h 20.9 km/h 58 % 0 mm
18:55 -2.1 °C -7 °C 34130.9 hPa East 20.9 km/h 20.9 km/h 59 % 0 mm
19:00 -2.2 °C -6.9 °C 34130.9 hPa ESE 18.3 km/h 18.3 km/h 60 % 0 mm
19:05 -2.2 °C -6.9 °C 34130.9 hPa ESE 22.5 km/h 22.5 km/h 60 % 0 mm
19:10 -2.2 °C -7.1 °C 34130.9 hPa ESE 20.9 km/h 20.9 km/h 59 % 0 mm
19:15 -2.1 °C -7 °C 34130.9 hPa ENE 20.9 km/h 20.9 km/h 59 % 0 mm
19:20 -2.2 °C -6.9 °C 34097 hPa ENE 26.9 km/h 26.9 km/h 60 % 0 mm
19:25 -2.2 °C -6.9 °C 34097 hPa East 15 km/h 15 km/h 60 % 0 mm
19:30 -2.3 °C -7 °C 34097 hPa ENE 20.9 km/h 20.9 km/h 60 % 0 mm
19:35 -2.4 °C -7.1 °C 34097 hPa ESE 20.9 km/h 20.9 km/h 60 % 0 mm
19:40 -2.4 °C -6.9 °C 34097 hPa ESE 17.9 km/h 17.9 km/h 61 % 0 mm
19:45 -2.4 °C -6.8 °C 34097 hPa East 26.9 km/h 26.9 km/h 62 % 0 mm
19:50 -2.5 °C -6.9 °C 34130.9 hPa ESE 17.9 km/h 17.9 km/h 62 % 0 mm
19:55 -2.5 °C -6.8 °C 34130.9 hPa East 15 km/h 15 km/h 63 % 0 mm
20:00 -2.6 °C -6.8 °C 34130.9 hPa ESE 20.9 km/h 20.9 km/h 63 % 0 mm
20:05 -2.6 °C -6.9 °C 34130.9 hPa ESE 20.9 km/h 20.9 km/h 63 % 0 mm
20:10 -2.7 °C -6.9 °C 34130.9 hPa East 23.8 km/h 23.8 km/h 63 % 0 mm
20:15 -2.7 °C -7 °C 34130.9 hPa ESE 14 km/h 14 km/h 63 % 0 mm
20:20 -2.8 °C -6.9 °C 34130.9 hPa ESE 20.9 km/h 20.9 km/h 64 % 0 mm
20:25 -2.8 °C -7.1 °C 34130.9 hPa East 15 km/h 15 km/h 63 % 0 mm
20:26 -2.8 °C -7.1 °C 34130.9 hPa ENE 15 km/h 15 km/h 63 % 0 mm
20:31 -2.8 °C -6.8 °C 34130.9 hPa ESE 15 km/h 15 km/h 65 % 0 mm
20:36 -2.9 °C -6.8 °C 34130.9 hPa East 11.1 km/h 11.1 km/h 65 % 0 mm
20:41 -2.9 °C -6.8 °C 34130.9 hPa ESE 9 km/h 9 km/h 66 % 0 mm
20:46 -3 °C -6.7 °C 34130.9 hPa SE 18.3 km/h 18.3 km/h 67 % 0 mm
20:51 -3.1 °C -6.8 °C 34130.9 hPa SSE 14.5 km/h 14.5 km/h 67 % 0 mm
20:56 -3.2 °C -6.7 °C 34130.9 hPa East 16.1 km/h 16.1 km/h 68 % 0 mm
21:01 -3.2 °C -6.6 °C 34130.9 hPa ESE 11.9 km/h 11.9 km/h 69 % 0 mm
21:06 -3.3 °C -6.7 °C 34130.9 hPa SE 17.9 km/h 17.9 km/h 69 % 0 mm
21:11 -3.3 °C -6.7 °C 34130.9 hPa ESE 17.9 km/h 17.9 km/h 69 % 0 mm
21:16 -3.4 °C -6.7 °C 34130.9 hPa ENE 17.9 km/h 17.9 km/h 70 % 0 mm
21:21 -3.4 °C -6.8 °C 34130.9 hPa NE 9 km/h 9 km/h 69 % 0 mm
21:26 -3.5 °C -6.9 °C 34130.9 hPa ENE 11.9 km/h 11.9 km/h 69 % 0 mm
21:31 -3.5 °C -6.9 °C 34130.9 hPa ENE 15 km/h 15 km/h 69 % 0 mm
21:36 -3.6 °C -6.8 °C 34130.9 hPa ENE 15 km/h 15 km/h 70 % 0 mm
21:41 -3.6 °C -6.8 °C 34130.9 hPa ESE 14 km/h 14 km/h 71 % 0 mm
21:46 -3.6 °C -6.8 °C 34130.9 hPa ENE 11.9 km/h 11.9 km/h 71 % 0 mm
21:51 -3.7 °C -6.7 °C 34130.9 hPa East 15 km/h 15 km/h 72 % 0 mm
21:56 -3.7 °C -6.7 °C 34130.9 hPa ENE 20.9 km/h 20.9 km/h 72 % 0 mm
21:57 -3.7 °C -6.6 °C 34130.9 hPa ESE 15 km/h 15 km/h 73 % 0 mm
22:02 -3.8 °C -6.7 °C 34130.9 hPa ESE 15 km/h 15 km/h 73 % 0 mm
22:07 -3.8 °C -6.6 °C 34130.9 hPa NNE 15 km/h 15 km/h 74 % 0 mm
22:12 -3.8 °C -6.6 °C 34130.9 hPa ENE 17.9 km/h 17.9 km/h 74 % 0 mm
22:17 -3.8 °C -6.5 °C 34130.9 hPa ENE 20.9 km/h 20.9 km/h 75 % 0 mm
22:22 -3.9 °C -6.5 °C 34130.9 hPa ENE 17.9 km/h 17.9 km/h 75 % 0 mm
22:27 -3.9 °C -6.4 °C 34130.9 hPa East 15 km/h 15 km/h 76 % 0 mm
Meteo Sesrovires
Elogis d' Weather Underground - 1.5 mb

Guio original per  Jim McMurry - jmcmurry@mwt.net Adaptat per a la plantilla per  Wim van der Kuil - Leuven-Template.eu

Trobareu la nostra informacio del temps tambe a:

Weather Underground

AWEKAS